Time;durP1;ratioP1;P1;durP2;ratioP2;P2;SDS_P1;SDS_P2;PMS_P1;PMS_P2;Temp;Humidity;BMP_temperature;BMP_pressure;BME280_temperature;BME280_humidity;BME280_pressure;Samples;Min_cycle;Max_cycle;Signal;HPM_P1;HPM_P2
2024/02/08 00:00:33;;;;;;;14.83;3.80;;;;;;;0.18;100.00;99551.75;4896077;58;1136820;-80
2024/02/08 00:05:42;;;;;;;9.27;2.80;;;;;;;0.13;100.00;99549.02;4924012;58;1136880;-80
2024/02/08 00:10:48;;;;;;;17.53;3.33;;;;;;;0.11;100.00;99550.40;4877159;58;1134522;-80
2024/02/08 00:15:53;;;;;;;11.90;3.40;;;;;;;0.11;100.00;99552.16;4858062;59;1136573;-80
2024/02/08 00:20:59;;;;;;;17.13;3.70;;;;;;;0.05;100.00;99555.89;4862042;59;1136557;-80
2024/02/08 00:26:05;;;;;;;11.75;4.58;;;;;;;0.04;100.00;99561.16;4865285;57;1136518;-80
2024/02/08 00:31:10;;;;;;;14.13;3.57;;;;;;;0.01;100.00;99551.75;4911470;58;1136575;-80
2024/02/08 00:36:16;;;;;;;14.13;3.43;;;;;;;0.03;100.00;99560.32;4887649;58;1136812;-80
2024/02/08 00:41:23;;;;;;;9.40;3.80;;;;;;;0.05;100.00;99561.09;4982663;57;1136811;-80
2024/02/08 00:46:29;;;;;;;12.95;4.72;;;;;;;0.15;100.00;99564.94;4990521;57;1134939;-80
2024/02/08 00:51:34;;;;;;;9.58;4.22;;;;;;;0.29;100.00;99564.23;4967397;57;1136556;-80
2024/02/08 00:56:41;;;;;;;17.70;5.20;;;;;;;0.38;100.00;99557.25;4913162;57;1134814;-80
2024/02/08 01:01:47;;;;;;;16.83;4.93;;;;;;;0.41;100.00;99574.00;4945208;57;1136964;-80
2024/02/08 01:06:52;;;;;;;13.00;3.70;;;;;;;0.39;100.00;99574.53;4931606;57;1136863;-80
2024/02/08 01:12:01;;;;;;;21.53;5.07;;;;;;;0.35;100.00;99570.41;4899916;58;1136539;-80
2024/02/08 01:17:07;;;;;;;21.00;5.43;;;;;;;0.36;100.00;99575.98;4894381;57;1136615;-80
2024/02/08 01:22:18;;;;;;;20.43;5.90;;;;;;;0.34;100.00;99579.97;4920325;58;1137085;-80
2024/02/08 01:27:20;;;;;;;19.87;5.55;;;;;;;0.36;100.00;99579.89;4947803;58;1136325;-80
2024/02/08 01:32:29;;;;;;;23.12;6.70;;;;;;;0.37;100.00;99577.67;4917146;58;1136530;-80
2024/02/08 01:37:38;;;;;;;15.23;4.80;;;;;;;0.37;100.00;99575.53;4834442;58;1136388;-80
2024/02/08 01:42:49;;;;;;;10.77;3.97;;;;;;;0.39;100.00;99578.44;4890024;58;1136659;-80
2024/02/08 01:47:54;;;;;;;15.23;4.73;;;;;;;0.37;100.00;99575.53;4853532;58;1137826;-80
2024/02/08 01:53:01;;;;;;;13.78;5.40;;;;;;;0.27;100.00;99577.77;4955679;57;1138180;-80
2024/02/08 01:58:09;;;;;;;31.37;9.57;;;;;;;0.28;100.00;99578.16;4980202;57;1136491;-80
2024/02/08 02:03:14;;;;;;;28.27;6.77;;;;;;;0.28;100.00;99574.25;4987657;57;1136568;-80
2024/02/08 02:08:26;;;;;;;20.62;6.15;;;;;;;0.28;100.00;99565.99;4982839;57;1136950;-80
2024/02/08 02:13:35;;;;;;;17.30;6.47;;;;;;;0.27;100.00;99569.51;4971685;57;1136640;-80
2024/02/08 02:18:40;;;;;;;31.07;8.23;;;;;;;0.27;100.00;99570.81;4971558;57;1136671;-79
2024/02/08 02:23:46;;;;;;;30.47;9.23;;;;;;;0.22;100.00;99574.09;4978312;57;1136852;-80
2024/02/08 02:28:52;;;;;;;38.60;8.50;;;;;;;0.18;100.00;99570.41;4998625;57;1136776;-80
2024/02/08 02:33:58;;;;;;;27.47;9.73;;;;;;;0.15;100.00;99564.94;4978471;57;1136559;-80
2024/02/08 02:39:05;;;;;;;34.27;9.53;;;;;;;0.14;100.00;99572.34;4980076;56;1136664;-80
2024/02/08 02:44:10;;;;;;;24.40;8.87;;;;;;;0.14;100.00;99578.01;5005386;57;1136556;-80
2024/02/08 02:49:21;;;;;;;27.93;9.03;;;;;;;0.08;100.00;99568.74;4975483;57;1136607;-79
2024/02/08 02:54:30;;;;;;;27.67;9.60;;;;;;;0.03;100.00;99567.28;5004068;57;1136541;-80
2024/02/08 02:59:37;;;;;;;15.90;6.57;;;;;;;0.01;100.00;99553.05;5048819;57;1136895;-80
2024/02/08 03:04:42;;;;;;;18.03;5.50;;;;;;;0.04;100.00;99555.97;5035559;57;1136667;-80
2024/02/08 03:09:48;;;;;;;26.90;7.53;;;;;;;-0.04;100.00;99561.10;5028161;57;1136574;-80
2024/02/08 03:15:00;;;;;;;14.97;5.03;;;;;;;-0.06;100.00;99555.59;5049172;57;1138852;-80
2024/02/08 03:20:11;;;;;;;17.27;5.05;;;;;;;-0.13;100.00;99547.25;5015840;57;1138552;-80
2024/02/08 03:25:16;;;;;;;16.23;4.90;;;;;;;-0.15;100.00;99550.83;5021592;57;1138808;-80
2024/02/08 03:30:31;;;;;;;20.10;6.57;;;;;;;-0.12;100.00;99554.13;5055686;56;1144410;-80
2024/02/08 03:35:38;;;;;;;18.07;5.92;;;;;;;-0.06;100.00;99550.39;5014450;57;1138769;-80
2024/02/08 03:40:44;;;;;;;22.13;5.50;;;;;;;-0.04;100.00;99552.47;5006264;57;1139009;-80
2024/02/08 03:45:50;;;;;;;21.62;6.05;;;;;;;-0.03;100.00;99546.35;5042108;57;1138797;-80
2024/02/08 03:50:58;;;;;;;11.70;4.70;;;;;;;-0.01;100.00;99544.06;5021117;56;1138897;-80
2024/02/08 03:56:02;;;;;;;15.37;6.23;;;;;;;0.01;100.00;99550.45;5006362;57;1138785;-80
2024/02/08 04:01:10;;;;;;;15.13;6.33;;;;;;;0.00;100.00;99544.41;5026135;57;1136691;-80
2024/02/08 04:54:40;;;;;;;19.17;5.45;;;;;;;0.11;100.00;99561.25;5029403;57;1136676;-80
2024/02/08 04:59:46;;;;;;;11.83;4.97;;;;;;;0.07;100.00;99555.81;5032707;57;1136686;-80
2024/02/08 05:04:52;;;;;;;12.57;4.73;;;;;;;0.00;100.00;99561.31;4985288;56;1136837;-79
2024/02/08 05:09:58;;;;;;;21.33;5.70;;;;;;;0.02;100.00;99561.23;4929021;57;1136789;-80
2024/02/08 05:15:12;;;;;;;9.50;4.40;;;;;;;-0.07;100.00;99573.40;4953279;56;1136829;-73
2024/02/08 05:20:12;;;;;;;22.53;6.00;;;;;;;-0.24;100.00;99570.78;5001690;57;1136800;-72
2024/02/08 05:25:21;;;;;;;18.10;5.00;;;;;;;-0.26;100.00;99565.66;4963881;57;1139127;-71
2024/02/08 05:30:25;;;;;;;22.77;6.13;;;;;;;-0.20;100.00;99561.93;4943975;57;1138808;-70
2024/02/08 05:35:32;;;;;;;18.25;5.78;;;;;;;-0.15;100.00;99561.22;4845913;58;1139280;-71
2024/02/08 05:40:43;;;;;;;17.10;5.60;;;;;;;-0.12;100.00;99564.52;4839267;58;1139047;-73
2024/02/08 05:45:45;;;;;;;19.80;9.30;;;;;;;-0.14;100.00;99559.02;4787360;59;1138600;-72
2024/02/08 05:51:02;;;;;;;455.47;165.80;;;;;;;-0.12;100.00;99558.02;4885785;58;1138515;-75
2024/02/08 05:56:01;;;;;;;211.40;77.67;;;;;;;-0.06;100.00;99558.19;4819480;58;1144906;-73
2024/02/08 06:01:16;;;;;;;43.35;19.15;;;;;;;-0.03;100.00;99558.89;4847273;59;1143170;-72
2024/02/08 06:06:26;;;;;;;53.67;24.43;;;;;;;-0.01;100.00;99557.06;4919331;58;1140626;-73
2024/02/08 06:11:24;;;;;;;41.70;18.60;;;;;;;-0.01;100.00;99557.06;4754401;59;1243450;-71
2024/02/08 06:16:45;;;;;;;34.20;13.53;;;;;;;-0.02;100.00;99565.77;4769965;59;1140861;-70
2024/02/08 06:21:40;;;;;;;77.27;23.87;;;;;;;-0.06;100.00;99573.33;4782644;59;1140953;-75
2024/02/08 06:26:54;;;;;;;17.37;6.83;;;;;;;-0.05;100.00;99575.47;4857711;58;1141040;-73
2024/02/08 06:32:02;;;;;;;21.00;6.87;;;;;;;-0.07;100.00;99571.64;4973672;57;1138575;-73
2024/02/08 06:37:15;;;;;;;17.75;6.97;;;;;;;-0.23;100.00;99562.07;4989188;57;1139104;-74
2024/02/08 06:47:54;;;;;;;18.92;6.10;;;;;;;-0.61;100.00;99566.03;4803678;58;1138945;-73
2024/02/08 07:41:05;;;;;;;251.53;60.37;;;;;;;-0.55;100.00;99528.56;4992180;57;1140853;-71
2024/02/08 07:46:16;;;;;;;76.40;24.37;;;;;;;-0.53;100.00;99526.73;4989259;57;1142867;-70
2024/02/08 07:51:23;;;;;;;308.03;70.67;;;;;;;-0.49;100.00;99534.31;4991406;57;1140845;-72
2024/02/08 07:57:00;;;;;;;71.97;21.10;;;;;;;-0.41;100.00;99536.06;4974662;57;1143165;-78
2024/02/08 08:01:43;;;;;;;85.85;23.25;;;;;;;-0.28;100.00;99544.56;4998311;57;1140874;-76
2024/02/08 08:06:50;;;;;;;88.67;25.10;;;;;;;-0.22;100.00;99540.38;4959955;57;1141367;-74
2024/02/08 08:11:56;;;;;;;78.23;26.03;;;;;;;-0.17;100.00;99544.89;4956908;57;1141738;-73
2024/02/08 08:22:19;;;;;;;145.03;48.70;;;;;;;0.05;100.00;99543.35;4988539;57;1140693;-73
2024/02/08 08:27:27;;;;;;;58.10;20.27;;;;;;;0.20;100.00;99543.42;4964375;57;1140996;-76
2024/02/08 08:37:44;;;;;;;48.78;14.73;;;;;;;0.25;100.00;99547.09;5003133;57;1139607;-73
2024/02/08 08:42:50;;;;;;;53.67;16.07;;;;;;;0.25;100.00;99548.39;4972868;57;1139060;-75
2024/02/08 08:48:00;;;;;;;58.60;18.12;;;;;;;0.29;100.00;99537.77;4984894;57;1138750;-77
2024/02/08 08:53:16;;;;;;;277.70;97.33;;;;;;;0.33;100.00;99526.27;4989953;57;1138827;-81
2024/02/08 08:58:16;;;;;;;;;;;;;;;0.41;100.00;99517.24;5014716;57;1140916;-78
2024/02/08 09:03:27;;;;;;;41.17;14.40;;;;;;;0.45;100.00;99518.31;4984878;57;971989;-78
2024/02/08 09:08:42;;;;;;;35.93;11.53;;;;;;;0.46;100.00;99513.46;4983356;57;1136856;-76
2024/02/08 09:13:44;;;;;;;75.23;32.40;;;;;;;0.52;100.00;99511.02;5023386;57;1138737;-76
2024/02/08 09:24:11;;;;;;;82.40;24.47;;;;;;;0.64;100.00;99509.89;4989074;57;1138780;-74
2024/02/08 09:29:23;;;;;;;90.45;31.55;;;;;;;0.67;100.00;99504.53;5007774;57;1139193;-72
2024/02/08 09:34:40;;;;;;;135.10;40.13;;;;;;;0.74;100.00;99510.27;5012540;57;1138785;-76
2024/02/08 09:39:58;;;;;;;60.08;23.83;;;;;;;0.76;100.00;99516.70;4923405;58;1140799;-74
2024/02/08 09:45:41;;;;;;;54.03;15.57;;;;;;;0.77;100.00;99511.84;4886941;58;1138963;-83
2024/02/08 09:50:50;;;;;;;90.30;26.17;;;;;;;0.80;100.00;99502.57;4895018;58;1138676;-82
2024/02/08 09:56:01;;;;;;;52.03;16.47;;;;;;;0.80;100.00;99501.27;4909293;57;1139276;-84
2024/02/08 10:06:38;;;;;;;48.53;15.63;;;;;;;0.82;100.00;99488.56;4805205;58;1141307;-81
2024/02/08 10:11:40;;;;;;;40.43;14.50;;;;;;;0.92;100.00;99486.28;5023035;56;1138976;-75
2024/02/08 10:16:48;;;;;;;60.82;20.76;;;;;;;0.95;100.00;99480.91;4996383;57;1138731;-80
2024/02/08 10:22:26;;;;;;;36.00;14.85;;;;;;;0.99;100.00;99485.04;5026736;57;1138896;-79
2024/02/08 10:27:27;;;;;;;36.58;14.20;;;;;;;1.04;100.00;99482.58;4956250;57;1139030;-78
2024/02/08 10:32:37;;;;;;;39.70;13.60;;;;;;;1.13;100.00;99474.70;5039374;57;1138873;-74
2024/02/08 10:38:07;;;;;;;46.80;16.80;;;;;;;1.14;100.00;99458.16;4878828;58;1138834;-78
2024/02/08 10:43:16;;;;;;;26.80;12.37;;;;;;;1.14;100.00;99448.20;4930396;58;1138876;-78
2024/02/08 10:48:13;;;;;;;39.47;15.03;;;;;;;1.20;100.00;99440.05;4887487;58;1138833;-80
2024/02/08 10:53:43;;;;;;;37.27;15.80;;;;;;;1.26;100.00;99425.36;4942406;57;1138736;-78
2024/02/08 10:58:27;;;;;;;30.83;12.67;;;;;;;1.36;100.00;99422.63;4877190;58;1138786;-76
2024/02/08 11:03:37;;;;;;;40.17;16.93;;;;;;;1.40;100.00;99407.17;4901136;58;1138617;-76
2024/02/08 11:09:09;;;;;;;65.50;30.00;;;;;;;1.46;100.00;99412.51;5038026;57;1139011;-75
2024/02/08 11:14:02;;;;;;;83.47;36.53;;;;;;;1.49;100.00;99418.39;4990169;57;1139351;-76
2024/02/08 11:19:09;;;;;;;43.93;16.40;;;;;;;1.60;100.00;99424.27;4984948;56;1138807;-76
2024/02/08 11:24:28;;;;;;;107.63;36.70;;;;;;;1.64;100.00;99416.66;5031843;56;1139499;-77
2024/02/08 11:29:46;;;;;;;58.17;21.37;;;;;;;1.67;100.00;99406.05;5030615;56;1141195;-80
2024/02/08 11:35:00;;;;;;;57.77;18.53;;;;;;;1.67;100.00;99414.72;4981158;57;1138820;-80
2024/02/08 11:40:11;;;;;;;46.30;17.43;;;;;;;1.71;100.00;99416.19;5025610;57;1138734;-79
2024/02/08 11:45:22;;;;;;;96.90;25.80;;;;;;;1.80;100.00;99420.50;4998943;56;1138924;-84
2024/02/08 11:50:36;;;;;;;46.30;15.88;;;;;;;1.82;100.00;99412.13;5054504;56;1138830;-81
2024/02/08 11:55:35;;;;;;;62.27;19.80;;;;;;;1.82;100.00;99398.63;4895165;58;1138734;-73
2024/02/08 12:00:48;;;;;;;51.23;19.27;;;;;;;1.82;100.00;99387.36;4832109;59;1139664;-78
2024/02/08 12:05:57;;;;;;;33.57;13.47;;;;;;;1.82;100.00;99377.78;4952530;58;1138912;-74
2024/02/08 12:11:03;;;;;;;34.10;13.33;;;;;;;1.84;100.00;99382.87;4782319;59;1138919;-73
2024/02/08 12:16:11;;;;;;;27.53;12.90;;;;;;;1.83;100.00;99383.36;4882752;57;1138844;-72
2024/02/08 12:21:17;;;;;;;57.43;19.73;;;;;;;1.84;100.00;99377.66;4859354;58;1138467;-72
2024/02/08 12:26:30;;;;;;;62.13;21.60;;;;;;;1.83;100.00;99383.83;4861297;58;1139105;-73
2024/02/08 12:31:35;;;;;;;39.80;16.77;;;;;;;1.84;100.00;99377.66;4842415;58;1138717;-77
2024/02/08 12:36:49;;;;;;;44.00;18.00;;;;;;;1.86;100.00;99388.84;4898732;58;1138737;-75
2024/02/08 12:41:53;;;;;;;42.63;18.57;;;;;;;1.88;100.00;99372.64;4871558;58;1138901;-74
2024/02/08 12:47:01;;;;;;;53.60;18.47;;;;;;;1.91;100.00;99375.06;4805196;59;1139243;-82
2024/02/08 12:52:11;;;;;;;37.23;16.43;;;;;;;1.97;100.00;99357.30;4880397;58;1139009;-81
2024/02/08 12:57:18;;;;;;;46.68;20.10;;;;;;;1.98;100.00;99359.44;4932233;58;1138985;-75
2024/02/08 13:02:25;;;;;;;51.83;20.50;;;;;;;2.01;100.00;99349.64;4892384;58;1138885;-73
2024/02/08 13:07:31;;;;;;;62.47;23.00;;;;;;;2.04;100.00;99352.53;4911533;58;1138699;-80
2024/02/08 13:12:37;;;;;;;56.70;24.00;;;;;;;2.05;100.00;99357.65;4933686;58;1138516;-78
2024/02/08 13:17:45;;;;;;;57.27;22.33;;;;;;;2.12;100.00;99347.70;4870354;57;1139117;-79
2024/02/08 13:22:51;;;;;;;45.07;18.13;;;;;;;2.14;100.00;99337.98;4874655;58;1191044;-78
2024/02/08 13:28:03;;;;;;;44.83;19.73;;;;;;;2.13;100.00;99338.94;4943748;57;1138827;-75
2024/02/08 13:33:05;;;;;;;49.38;20.50;;;;;;;2.09;100.00;99338.28;5068564;56;1138682;-79
2024/02/08 13:38:12;;;;;;;46.73;19.73;;;;;;;2.08;100.00;99337.91;4982357;57;1138590;-78
2024/02/08 13:43:18;;;;;;;67.93;18.03;;;;;;;2.16;100.00;99343.94;5033195;57;1138735;-80
2024/02/08 13:48:28;;;;;;;46.00;19.87;;;;;;;2.20;100.00;99336.77;5031585;56;1138932;-74
2024/02/08 13:53:31;;;;;;;51.87;21.03;;;;;;;2.25;100.00;99334.26;5014026;57;1138841;-75
2024/02/08 13:58:36;;;;;;;55.17;23.60;;;;;;;2.31;100.00;99335.63;4970965;57;1138610;-78
2024/02/08 14:03:45;;;;;;;46.90;21.60;;;;;;;2.34;100.00;99330.22;4984464;57;1139015;-76
2024/02/08 14:08:54;;;;;;;41.67;18.93;;;;;;;2.34;100.00;99321.09;4985539;57;1138625;-75
2024/02/08 14:13:56;;;;;;;48.90;20.35;;;;;;;2.35;100.00;99323.61;4985901;57;1138797;-77
2024/02/08 14:19:02;;;;;;;40.17;18.47;;;;;;;2.39;100.00;99326.87;4860187;58;1138944;-80
2024/02/08 14:24:11;;;;;;;38.73;14.97;;;;;;;2.46;100.00;99326.84;4892425;57;1139118;-77
2024/02/08 14:29:15;;;;;;;63.85;24.63;;;;;;;2.48;100.00;99327.11;4956580;57;1138832;-77
2024/02/08 14:34:25;;;;;;;30.83;14.30;;;;;;;2.48;100.00;99317.98;4875554;57;1139032;-77
2024/02/08 14:39:28;;;;;;;35.43;15.17;;;;;;;2.51;100.00;99304.38;4883183;58;1138787;-78
2024/02/08 14:44:40;;;;;;;73.77;27.37;;;;;;;2.50;100.00;99313.97;4957196;57;1138935;-79
2024/02/08 14:49:55;;;;;;;58.55;27.42;;;;;;;2.48;100.00;99310.15;4937488;57;1139181;-78
2024/02/08 14:55:20;;;;;;;119.43;49.10;;;;;;;2.51;100.00;99314.81;4899163;57;1138782;-76
2024/02/08 15:11:38;;;;;;;63.93;30.17;;;;;;;2.51;100.00;99300.45;4872342;57;1138888;-78
2024/02/08 15:16:30;;;;;;;100.37;50.83;;;;;;;2.59;100.00;99296.91;4942356;57;1138635;-77
2024/02/08 15:21:34;;;;;;;63.23;32.60;;;;;;;2.60;100.00;99302.00;4961636;57;1140818;-76
2024/02/08 15:26:37;;;;;;;68.83;33.77;;;;;;;2.60;100.00;99290.75;4999356;57;1138678;-76
2024/02/08 15:31:56;;;;;;;82.57;30.33;;;;;;;2.61;100.00;99282.80;4970777;57;1138727;-75
2024/02/08 15:36:50;;;;;;;44.00;18.87;;;;;;;2.62;100.00;99288.38;4972740;57;1138766;-76
2024/02/08 15:42:01;;;;;;;77.00;29.17;;;;;;;2.62;100.00;99288.38;5033975;57;1138958;-75
2024/02/08 15:47:18;;;;;;;108.63;43.00;;;;;;;2.66;100.00;99286.42;4989472;57;1138935;-77
2024/02/08 15:52:22;;;;;;;47.23;22.93;;;;;;;2.68;100.00;99289.77;4941554;57;1141006;-77
2024/02/08 15:57:32;;;;;;;56.88;23.20;;;;;;;2.69;100.00;99296.67;4944298;57;1139670;-80
2024/02/08 16:02:37;;;;;;;58.53;24.77;;;;;;;2.74;100.00;99300.67;4932416;58;1138820;-78
2024/02/08 16:07:42;;;;;;;57.93;24.63;;;;;;;2.69;100.00;99299.28;4907703;57;1138767;-78
2024/02/08 16:13:04;;;;;;;63.83;24.80;;;;;;;2.57;100.00;99297.47;4770426;59;1139005;-76
2024/02/08 16:18:00;;;;;;;77.90;30.83;;;;;;;2.48;100.00;99295.80;4764898;59;1138935;-77
2024/02/08 16:23:13;;;;;;;91.50;32.93;;;;;;;2.38;100.00;99282.98;4794292;59;1138824;-78
2024/02/08 16:28:20;;;;;;;81.90;31.40;;;;;;;2.32;100.00;99282.52;4883895;57;1138972;-77
2024/02/08 16:33:33;;;;;;;96.55;36.13;;;;;;;2.33;100.00;99278.52;4915803;57;1138933;-78
2024/02/08 16:38:46;;;;;;;98.63;37.50;;;;;;;2.34;100.00;99274.97;4869356;58;1138894;-76
2024/02/08 16:43:49;;;;;;;170.53;74.83;;;;;;;2.30;100.00;99261.74;4779135;59;1139228;-79
2024/02/08 16:49:00;;;;;;;226.53;102.27;;;;;;;2.28;100.00;99260.20;5047384;57;1222738;-80
2024/02/08 16:54:17;;;;;;;163.22;68.17;;;;;;;2.31;100.00;99262.58;5042897;57;1143099;-77
2024/02/08 16:59:27;;;;;;;141.97;59.73;;;;;;;2.33;100.00;99262.86;4969578;57;1140744;-77
2024/02/08 17:04:29;;;;;;;103.55;46.75;;;;;;;2.33;100.00;99247.20;5029493;56;1141187;-75
2024/02/08 17:09:34;;;;;;;67.93;29.63;;;;;;;2.33;100.00;99249.81;4971896;57;1140772;-79
2024/02/08 17:14:36;;;;;;;75.70;30.37;;;;;;;2.29;100.00;99244.41;4986434;57;1138563;-75
2024/02/08 17:19:51;;;;;;;136.62;57.50;;;;;;;2.23;100.00;99236.16;5026719;57;1138788;-77
2024/02/08 17:25:03;;;;;;;;;;;;;;;2.19;100.00;99230.30;4976346;57;1141033;-77
2024/02/08 17:30:17;;;;;;;63.83;25.90;;;;;;;2.15;100.00;99223.59;5035334;57;971867;-76
2024/02/08 17:35:08;;;;;;;87.13;34.97;;;;;;;2.09;100.00;99220.09;4966292;57;1136562;-75
2024/02/08 17:40:18;;;;;;;128.27;54.37;;;;;;;2.06;100.00;99216.37;4987913;57;1138877;-77
2024/02/08 17:45:32;;;;;;;112.77;56.10;;;;;;;2.08;100.00;99214.04;4981059;57;1140957;-79
2024/02/08 17:50:33;;;;;;;142.30;65.10;;;;;;;2.07;100.00;99205.84;4916815;58;1140395;-78
2024/02/08 17:55:39;;;;;;;173.57;64.23;;;;;;;2.07;100.00;99195.88;4943600;58;1141230;-80
2024/02/08 18:00:50;;;;;;;119.33;46.47;;;;;;;2.04;100.00;99188.24;4904751;57;1140762;-75
2024/02/08 18:05:57;;;;;;;71.47;32.03;;;;;;;1.99;100.00;99187.69;4900604;58;1140805;-78
2024/02/08 18:11:04;;;;;;;88.93;40.90;;;;;;;1.90;100.00;99183.91;4907778;58;1138814;-79
2024/02/08 18:16:10;;;;;;;80.30;35.20;;;;;;;1.86;100.00;99175.06;4959768;58;1138684;-75
2024/02/08 18:21:16;;;;;;;78.80;34.53;;;;;;;1.87;100.00;99178.05;5011396;57;1138767;-81
2024/02/08 18:26:35;;;;;;;87.60;35.50;;;;;;;1.88;100.00;99171.44;4898487;57;1138712;-77
2024/02/08 18:31:34;;;;;;;82.00;38.73;;;;;;;1.93;100.00;99171.16;4957450;58;1138693;-79
2024/02/08 18:36:46;;;;;;;73.37;37.23;;;;;;;1.90;100.00;99160.45;4971849;58;1138789;-77
2024/02/08 18:41:57;;;;;;;147.70;54.50;;;;;;;1.88;100.00;99158.88;4853906;58;1138877;-76
2024/02/08 18:47:03;;;;;;;108.12;40.70;;;;;;;1.85;100.00;99157.29;4816145;59;1140961;-78
2024/02/08 18:52:15;;;;;;;87.77;42.23;;;;;;;1.88;100.00;99157.56;4935571;58;1141061;-77
2024/02/08 18:57:16;;;;;;;110.03;45.93;;;;;;;1.93;100.00;99154.20;4940664;58;1138989;-78
2024/02/08 19:02:24;;;;;;;123.77;52.77;;;;;;;1.97;100.00;99151.31;4912987;58;1140625;-79
2024/02/08 19:07:32;;;;;;;149.73;59.97;;;;;;;2.03;100.00;99149.59;4937449;58;1140680;-78
2024/02/08 19:12:37;;;;;;;157.47;61.43;;;;;;;2.05;100.00;99152.11;4927011;57;1140689;-77
2024/02/08 19:17:45;;;;;;;114.80;52.37;;;;;;;2.03;100.00;99152.67;4896761;58;1140863;-78
2024/02/08 19:22:51;;;;;;;83.60;35.83;;;;;;;2.03;100.00;99157.89;4940474;58;1142035;-79
2024/02/08 19:27:59;;;;;;;128.73;55.37;;;;;;;2.02;100.00;99157.05;4990423;57;1138831;-81
2024/02/08 19:33:10;;;;;;;126.30;54.20;;;;;;;2.05;100.00;99152.95;4939858;57;1140769;-81
2024/02/08 19:38:12;;;;;;;109.40;49.45;;;;;;;2.10;100.00;99156.11;4916860;57;1140806;-80
2024/02/08 19:43:18;;;;;;;133.63;62.50;;;;;;;2.12;100.00;99150.80;4936235;58;1140896;-78
2024/02/08 19:48:24;;;;;;;92.73;43.13;;;;;;;2.14;100.00;99148.09;4868961;58;1140905;-82
2024/02/08 19:53:30;;;;;;;114.60;52.60;;;;;;;2.10;100.00;99154.80;4909628;58;1138798;-80
2024/02/08 19:58:38;;;;;;;118.87;50.63;;;;;;;2.06;100.00;99150.71;4917185;58;1140655;-79
2024/02/08 20:03:47;;;;;;;60.43;25.30;;;;;;;2.03;100.00;99157.89;4894295;57;1140844;-80
2024/02/08 20:08:54;;;;;;;68.77;27.87;;;;;;;2.02;100.00;99170.55;4894786;58;1138697;-80
2024/02/08 20:14:06;;;;;;;62.90;27.22;;;;;;;2.04;100.00;99174.74;4894488;58;1138550;-77
2024/02/08 20:19:09;;;;;;;61.07;25.40;;;;;;;2.13;100.00;99174.64;4838708;58;1139052;-78
2024/02/08 20:24:19;;;;;;;71.22;29.77;;;;;;;2.22;100.00;99179.71;4826541;59;1138692;-80
2024/02/08 20:29:24;;;;;;;55.57;24.50;;;;;;;2.29;100.00;99194.85;4878897;58;1138832;-81
2024/02/08 20:34:33;;;;;;;269.00;112.73;;;;;;;2.34;100.00;99196.70;4853752;58;1138920;-79
2024/02/08 20:39:38;;;;;;;195.33;89.53;;;;;;;2.32;100.00;99201.64;4863941;58;1142839;-78
2024/02/08 20:44:44;;;;;;;69.97;31.40;;;;;;;2.33;100.00;99204.16;4917257;58;1140823;-79
2024/02/08 20:49:50;;;;;;;82.00;33.33;;;;;;;2.30;100.00;99199.13;4738470;59;1139038;-80
2024/02/08 20:54:57;;;;;;;66.47;28.70;;;;;;;2.29;100.00;99198.77;4719635;59;1139175;-79
2024/02/08 21:00:04;;;;;;;75.90;34.33;;;;;;;2.31;100.00;99188.23;4800794;59;1139082;-82
2024/02/08 21:05:10;;;;;;;79.90;41.50;;;;;;;2.37;100.00;99194.37;4879060;59;1139066;-83
2024/02/08 21:10:25;;;;;;;184.03;55.20;;;;;;;2.42;100.00;99194.45;4823474;59;1138683;-83
2024/02/08 21:15:31;;;;;;;90.87;31.90;;;;;;;2.42;100.00;99190.53;4807779;58;1140786;-83
2024/02/08 21:20:37;;;;;;;55.27;22.70;;;;;;;2.40;100.00;99188.48;4883742;57;1139030;-82
2024/02/08 21:25:42;;;;;;;52.87;21.07;;;;;;;2.38;100.00;99179.08;4888029;58;1138838;-82
2024/02/08 21:30:49;;;;;;;58.33;24.87;;;;;;;2.23;100.00;99163.97;4815249;58;1138952;-82
2024/02/08 21:36:00;;;;;;;178.80;74.07;;;;;;;2.11;100.00;99165.60;4776881;60;1138837;-80
2024/02/08 21:41:04;;;;;;;131.10;53.00;;;;;;;2.02;100.00;99171.39;4905111;57;1140834;-81
2024/02/08 21:46:13;;;;;;;134.35;51.40;;;;;;;1.96;100.00;99159.23;4880780;58;1140936;-81
2024/02/08 21:51:19;;;;;;;107.83;46.28;;;;;;;1.94;100.00;99146.29;4879798;58;1140856;-80
2024/02/08 21:56:24;;;;;;;110.20;49.33;;;;;;;1.99;100.00;99140.76;4898652;58;1141060;-80
2024/02/08 22:01:30;;;;;;;167.00;72.87;;;;;;;1.99;100.00;99129.86;4897703;58;1140862;-80
2024/02/08 22:06:36;;;;;;;74.57;33.67;;;;;;;1.95;100.00;99125.80;4898961;58;1140668;-80
2024/02/08 22:11:55;;;;;;;74.67;32.40;;;;;;;1.91;100.00;99119.58;4963040;57;1138708;-79
2024/02/08 22:17:07;;;;;;;55.57;24.90;;;;;;;1.82;100.00;99121.02;4967812;57;1138982;-83
2024/02/08 22:22:07;;;;;;;67.83;30.77;;;;;;;1.69;100.00;99118.80;4976554;57;1138568;-83
2024/02/08 22:27:13;;;;;;;75.55;35.28;;;;;;;1.64;100.00;99119.58;4938378;57;1138743;-82
2024/02/08 22:32:19;;;;;;;69.85;31.73;;;;;;;1.65;100.00;99118.18;4988980;57;1139368;-83
2024/02/08 22:37:25;;;;;;;49.23;25.43;;;;;;;1.67;100.00;99131.95;5004568;57;1138553;-81
2024/02/08 22:42:38;;;;;;;87.83;37.27;;;;;;;1.60;100.00;99134.56;4940253;58;1138751;-82
2024/02/08 22:47:45;;;;;;;96.02;35.65;;;;;;;1.54;100.00;99136.70;4885870;59;1138738;-82
2024/02/08 22:52:52;;;;;;;74.63;30.60;;;;;;;1.54;100.00;99128.88;4884361;58;1138575;-82
2024/02/08 22:58:00;;;;;;;81.03;34.73;;;;;;;1.54;100.00;99125.81;4875192;59;1138872;-82
2024/02/08 23:03:09;;;;;;;74.70;32.70;;;;;;;1.55;100.00;99132.70;4879813;58;1138989;-82
2024/02/08 23:08:15;;;;;;;39.80;20.77;;;;;;;1.54;100.00;99126.28;4863804;59;1138908;-83
2024/02/08 23:13:21;;;;;;;66.47;26.23;;;;;;;1.46;100.00;99122.87;4847204;58;1138925;-82
2024/02/08 23:18:26;;;;;;;39.00;18.23;;;;;;;1.43;100.00;99122.22;4920505;58;1138564;-82
2024/02/08 23:23:32;;;;;;;59.67;21.87;;;;;;;1.42;100.00;99120.08;4891185;57;1138992;-83
2024/02/08 23:28:38;;;;;;;42.27;18.60;;;;;;;1.38;100.00;99125.94;4770890;58;1138992;-83
2024/02/08 23:33:44;;;;;;;40.20;17.77;;;;;;;1.35;100.00;99132.66;4859663;58;1138913;-82
2024/02/08 23:38:49;;;;;;;51.50;21.57;;;;;;;1.36;100.00;99125.22;4856001;59;1138824;-82
2024/02/08 23:43:56;;;;;;;54.47;22.87;;;;;;;1.41;100.00;99129.66;4930771;58;1138624;-83
2024/02/08 23:49:04;;;;;;;77.77;29.80;;;;;;;1.47;100.00;99132.82;4942109;57;1138765;-82
2024/02/08 23:54:10;;;;;;;56.60;24.30;;;;;;;1.46;100.00;99129.38;4924918;57;1144712;-83
2024/02/08 23:59:15;;;;;;;51.73;22.63;;;;;;;1.38;100.00;99117.28;4942089;57;1138900;-82
